createdAt,value
2018-08-30T09:55:22.556Z,1005.92
2018-08-30T09:56:22.561Z,1005.96
2018-08-30T09:57:22.859Z,1005.89
2018-08-30T09:58:22.570Z,1005.87
2018-08-30T09:59:22.574Z,1005.86
2018-08-30T10:00:22.578Z,1005.91
2018-08-30T10:01:22.581Z,1006.00
2018-08-30T10:02:22.584Z,1005.96
2018-08-30T10:03:22.588Z,1005.94
2018-08-30T10:04:22.591Z,1005.97
2018-08-30T10:05:22.596Z,1005.93
2018-08-30T10:06:22.602Z,1005.92
2018-08-30T10:07:22.605Z,1005.93
2018-08-30T10:08:22.609Z,1005.85
2018-08-30T10:09:22.619Z,1005.92
2018-08-30T10:10:22.620Z,1005.95
2018-08-30T10:11:22.625Z,1005.90
2018-08-30T10:12:22.632Z,1005.94
2018-08-30T10:13:22.638Z,1005.97
2018-08-30T10:14:22.644Z,1005.93
2018-08-30T10:15:22.648Z,1005.98
2018-08-30T10:16:22.655Z,1005.95
2018-08-30T10:17:22.662Z,1005.95
2018-08-30T10:18:22.668Z,1005.93
2018-08-30T10:19:22.675Z,1005.93
2018-08-30T10:20:22.680Z,1005.95
2018-08-30T10:21:22.726Z,1005.89
2018-08-30T10:22:22.692Z,1005.90
2018-08-30T10:23:22.697Z,1005.92
2018-08-30T10:24:22.701Z,1005.91
2018-08-30T10:25:22.746Z,1005.94
2018-08-30T10:26:22.708Z,1006.00
2018-08-30T10:27:22.716Z,1005.94
2018-08-30T10:28:22.720Z,1005.98
2018-08-30T10:29:22.718Z,1005.97
2018-08-30T10:30:22.722Z,1005.96
2018-08-30T10:31:22.729Z,1006.01
2018-08-30T10:32:22.724Z,1005.99
2018-08-30T10:33:22.727Z,1005.99
2018-08-30T10:34:22.728Z,1005.96
2018-08-30T10:35:22.731Z,1006.01
2018-08-30T10:36:22.734Z,1005.96
2018-08-30T10:37:22.737Z,1005.99
2018-08-30T10:38:22.740Z,1005.97
2018-08-30T10:39:22.740Z,1005.94
2018-08-30T10:40:22.740Z,1005.96
2018-08-30T10:41:22.742Z,1005.92
2018-08-30T10:42:22.785Z,1005.92
2018-08-30T10:43:22.743Z,1005.86
2018-08-30T10:44:22.744Z,1005.95
2018-08-30T10:45:22.744Z,1005.94
2018-08-30T10:46:22.743Z,1005.92
2018-08-30T10:47:22.742Z,1005.89
2018-08-30T10:48:22.743Z,1006.01
2018-08-30T10:49:22.782Z,1005.98
2018-08-30T10:50:22.742Z,1006.00
2018-08-30T10:51:22.741Z,1005.98
2018-08-30T10:52:22.742Z,1005.94
2018-08-30T10:53:22.743Z,1005.94
2018-08-30T10:54:22.746Z,1006.00
2018-08-30T10:55:22.747Z,1005.98
2018-08-30T10:56:22.818Z,1005.95
2018-08-30T10:57:22.748Z,1006.04
2018-08-30T10:58:22.755Z,1006.00
2018-08-30T10:59:22.753Z,1006.04
2018-08-30T11:00:22.754Z,1006.03
2018-08-30T11:01:22.758Z,1005.98
2018-08-30T11:02:22.760Z,1006.00
2018-08-30T11:03:22.765Z,1005.97
2018-08-30T11:04:22.800Z,1006.03
2018-08-30T11:05:22.773Z,1006.09
2018-08-30T11:06:22.779Z,1006.10
2018-08-30T11:07:22.785Z,1006.07
2018-08-30T11:08:22.791Z,1005.98
2018-08-30T11:09:22.797Z,1005.98
2018-08-30T11:10:22.809Z,1006.04
2018-08-30T11:11:22.811Z,1006.06
2018-08-30T11:12:22.819Z,1006.06
2018-08-30T11:13:22.847Z,1006.05
2018-08-30T11:14:22.836Z,1006.04
2018-08-30T11:15:22.843Z,1006.07
2018-08-30T11:16:22.850Z,1006.05
2018-08-30T11:17:22.859Z,1006.06
2018-08-30T11:18:22.867Z,1006.01
2018-08-30T11:19:22.915Z,1006.01
2018-08-30T11:20:22.883Z,1006.04
2018-08-30T11:21:22.892Z,1005.99
2018-08-30T11:22:22.898Z,1006.01
2018-08-30T11:23:22.906Z,1006.03
2018-08-30T11:24:22.928Z,1006.10
2018-08-30T11:25:22.917Z,1006.03
2018-08-30T11:26:22.923Z,1006.05
2018-08-30T11:27:22.929Z,1006.00
2018-08-30T11:28:22.936Z,1006.02
2018-08-30T11:29:22.941Z,1005.95
2018-08-30T11:30:22.947Z,1005.98
2018-08-30T11:31:22.949Z,1005.97
2018-08-30T11:32:23.158Z,1005.98
2018-08-30T11:33:22.957Z,1006.04
2018-08-30T11:34:22.961Z,1006.05
2018-08-30T11:35:22.964Z,1006.05
2018-08-30T11:36:22.965Z,1006.12
2018-08-30T11:37:22.969Z,1006.08
2018-08-30T11:38:22.972Z,1006.00
2018-08-30T11:39:22.975Z,1006.00
2018-08-30T11:40:22.977Z,1006.05
2018-08-30T11:41:23.116Z,1006.02
2018-08-30T11:42:23.029Z,1006.04
2018-08-30T11:43:23.173Z,1006.02
2018-08-30T11:44:22.999Z,1006.08
2018-08-30T11:45:23.006Z,1006.06
2018-08-30T11:46:23.012Z,1006.06
2018-08-30T11:47:23.018Z,1006.06
2018-08-30T11:48:23.025Z,1006.06
2018-08-30T11:49:23.032Z,1006.07
2018-08-30T11:50:23.038Z,1006.04
2018-08-30T11:51:23.047Z,1006.07
2018-08-30T11:52:23.200Z,1006.14
2018-08-30T11:53:23.059Z,1006.14
2018-08-30T11:54:23.173Z,1006.14
2018-08-30T11:55:23.072Z,1006.13
2018-08-30T11:56:23.077Z,1006.11
2018-08-30T11:57:23.086Z,1006.10
2018-08-30T11:58:23.096Z,1006.12
2018-08-30T11:59:23.097Z,1006.12
2018-08-30T12:00:23.103Z,1006.16
2018-08-30T12:01:23.111Z,1006.14
2018-08-30T12:02:23.115Z,1006.17
2018-08-30T12:03:23.122Z,1006.15
2018-08-30T12:04:23.140Z,1006.16
2018-08-30T12:05:23.132Z,1006.11
2018-08-30T12:06:23.141Z,1006.08
2018-08-30T12:07:23.146Z,1006.06
2018-08-30T12:08:23.214Z,1006.15
2018-08-30T12:09:23.157Z,1006.08
2018-08-30T12:10:23.178Z,1006.01
2018-08-30T12:11:23.174Z,1006.13
2018-08-30T12:12:23.424Z,1006.16
2018-08-30T12:13:23.180Z,1006.15
2018-08-30T12:14:23.185Z,1006.17
2018-08-30T12:15:23.190Z,1006.18
2018-08-30T12:16:23.203Z,1006.13
2018-08-30T12:17:23.203Z,1006.14
2018-08-30T12:18:23.211Z,1006.20
2018-08-30T12:19:23.216Z,1006.20
2018-08-30T12:20:23.313Z,1006.20
2018-08-30T12:21:23.227Z,1006.18
2018-08-30T12:22:23.234Z,1006.20
2018-08-30T12:23:23.242Z,1006.20
2018-08-30T12:24:23.242Z,1006.20
2018-08-30T12:25:23.246Z,1006.16
2018-08-30T12:26:23.500Z,1006.18
2018-08-30T12:27:23.257Z,1006.18
2018-08-30T12:28:23.288Z,1006.19
2018-08-30T12:29:23.352Z,1006.18
2018-08-30T12:30:23.299Z,1006.17
2018-08-30T12:31:23.296Z,1006.17
2018-08-30T12:32:23.317Z,1006.15
2018-08-30T12:33:23.347Z,1006.15
2018-08-30T12:34:23.314Z,1006.18
2018-08-30T12:35:23.294Z,1006.18
2018-08-30T12:36:23.325Z,1006.14
2018-08-30T12:37:23.338Z,1006.17
2018-08-30T12:38:23.282Z,1006.10
2018-08-30T12:39:23.326Z,1006.12
2018-08-30T12:40:23.389Z,1006.13
2018-08-30T12:41:23.309Z,1006.12
2018-08-30T12:42:23.348Z,1006.10
2018-08-30T12:43:23.379Z,1006.07
2018-08-30T12:44:23.344Z,1006.12
2018-08-30T12:45:23.294Z,1006.02
2018-08-30T12:46:23.343Z,1006.11
2018-08-30T12:47:23.337Z,1006.11
2018-08-30T12:48:23.355Z,1006.07
2018-08-30T12:49:23.349Z,1006.07
2018-08-30T12:50:23.394Z,1006.01
2018-08-30T12:51:23.564Z,1006.05
2018-08-30T12:52:23.415Z,1005.98
2018-08-30T12:53:23.468Z,1005.98
2018-08-30T12:54:23.480Z,1005.99
2018-08-30T12:55:23.430Z,1005.98
2018-08-30T12:56:23.776Z,1005.97
2018-08-30T12:57:23.353Z,1006.01
2018-08-30T12:58:23.439Z,1006.05
2018-08-30T12:59:23.410Z,1006.00
2018-08-30T13:00:23.533Z,1006.00
2018-08-30T13:01:23.338Z,1005.99
2018-08-30T13:02:23.649Z,1005.96
2018-08-30T13:03:23.538Z,1005.96
2018-08-30T13:04:23.548Z,1006.00
2018-08-30T13:05:23.553Z,1006.01
2018-08-30T13:06:23.649Z,1006.02
2018-08-30T13:07:23.739Z,1006.07
2018-08-30T13:08:23.656Z,1006.02
2018-08-30T13:09:23.590Z,1006.10
2018-08-30T13:10:23.721Z,1006.05
2018-08-30T13:11:23.548Z,1006.03
2018-08-30T13:12:23.626Z,1006.00
2018-08-30T13:13:23.724Z,1006.03
2018-08-30T13:14:23.626Z,1006.00
2018-08-30T13:15:23.811Z,1006.02
2018-08-30T13:16:23.615Z,1006.00
2018-08-30T13:17:23.625Z,1006.02
2018-08-30T13:18:23.664Z,1006.02
2018-08-30T13:19:23.783Z,1005.99
2018-08-30T13:20:23.691Z,1005.97
2018-08-30T13:21:23.669Z,1006.02
2018-08-30T13:22:23.800Z,1006.02
2018-08-30T13:23:23.611Z,1006.03
2018-08-30T13:24:23.710Z,1006.02
2018-08-30T13:25:23.722Z,1006.05
2018-08-30T13:26:23.677Z,1006.01
2018-08-30T13:27:23.611Z,1006.03
2018-08-30T13:28:23.736Z,1006.05
2018-08-30T13:29:23.552Z,1006.03
2018-08-30T13:30:23.734Z,1006.01
2018-08-30T13:31:23.661Z,1006.04
2018-08-30T13:32:23.868Z,1006.07
2018-08-30T13:33:23.811Z,1006.05
2018-08-30T13:34:24.011Z,1006.02
2018-08-30T13:35:23.952Z,1006.04
2018-08-30T13:36:23.977Z,1006.08
2018-08-30T13:37:23.799Z,1006.01
2018-08-30T13:38:23.772Z,1006.02
2018-08-30T13:39:23.906Z,1006.00
2018-08-30T13:40:23.868Z,1005.98
2018-08-30T13:41:23.939Z,1005.99
2018-08-30T13:42:23.767Z,1006.03
2018-08-30T13:43:23.533Z,1006.03
2018-08-30T13:44:23.852Z,1006.04
2018-08-30T13:45:23.783Z,1006.04
2018-08-30T13:46:23.846Z,1006.02
2018-08-30T13:47:24.047Z,1006.02
2018-08-30T13:48:23.854Z,1006.05
2018-08-30T13:49:23.526Z,1006.03
2018-08-30T13:50:23.758Z,1006.03
2018-08-30T13:51:23.790Z,1006.02
2018-08-30T13:52:23.953Z,1006.03
2018-08-30T13:53:23.707Z,1006.04
2018-08-30T13:54:23.884Z,1006.05
2018-08-30T13:55:23.854Z,1006.05
2018-08-30T13:56:23.788Z,1006.03
2018-08-30T13:57:23.951Z,1006.03
2018-08-30T13:58:24.023Z,1006.00
2018-08-30T13:59:23.904Z,1006.02
2018-08-30T14:00:23.871Z,1006.03
2018-08-30T14:01:23.867Z,1006.01
2018-08-30T14:02:23.701Z,1006.04
2018-08-30T14:03:23.809Z,1006.03
2018-08-30T14:04:23.706Z,1006.02
2018-08-30T14:05:23.656Z,1006.02
2018-08-30T14:06:23.662Z,1006.03
2018-08-30T14:07:23.693Z,1006.07
2018-08-30T14:08:23.648Z,1006.03
2018-08-30T14:09:23.601Z,1006.06
2018-08-30T14:10:23.904Z,1006.08
2018-08-30T14:11:23.730Z,1006.09
2018-08-30T14:12:23.725Z,1006.06
2018-08-30T14:13:23.623Z,1006.10
2018-08-30T14:14:23.733Z,1006.05
2018-08-30T14:15:23.889Z,1006.08
2018-08-30T14:16:23.327Z,1006.07
2018-08-30T14:17:23.327Z,1006.02
2018-08-30T14:18:23.328Z,1006.07
2018-08-30T14:19:23.349Z,1006.04
2018-08-30T14:20:23.387Z,1006.07
2018-08-30T14:21:23.328Z,1006.06
2018-08-30T14:22:23.411Z,1006.05
2018-08-30T14:23:23.369Z,1006.05
2018-08-30T14:24:23.330Z,1006.05
2018-08-30T14:25:23.328Z,1006.11
2018-08-30T14:26:23.329Z,1006.11
2018-08-30T14:27:23.330Z,1006.09
2018-08-30T14:28:23.329Z,1006.09
2018-08-30T14:29:23.331Z,1006.06
2018-08-30T14:30:23.385Z,1006.07
2018-08-30T14:31:23.331Z,1006.08
2018-08-30T14:32:23.332Z,1006.13
2018-08-30T14:33:23.333Z,1006.09
2018-08-30T14:34:23.401Z,1006.04
2018-08-30T14:35:23.333Z,1006.02
2018-08-30T14:36:23.350Z,1006.07
2018-08-30T14:37:23.408Z,1006.11
2018-08-30T14:38:23.364Z,1006.12
2018-08-30T14:39:23.353Z,1006.08
2018-08-30T14:40:23.368Z,1006.03
2018-08-30T14:41:23.599Z,1006.06
2018-08-30T14:42:23.330Z,1006.10
2018-08-30T14:43:23.328Z,1006.11
2018-08-30T14:44:23.329Z,1006.03
2018-08-30T14:45:23.329Z,1006.01
2018-08-30T14:46:23.347Z,1006.03
2018-08-30T14:47:23.453Z,1005.99
2018-08-30T14:48:23.321Z,1006.00
2018-08-30T14:49:23.325Z,1005.99
2018-08-30T14:50:23.322Z,1006.00
2018-08-30T14:51:23.316Z,1005.97
2018-08-30T14:52:23.318Z,1005.91
2018-08-30T14:53:23.542Z,1005.92
2018-08-30T14:54:23.348Z,1005.96
2018-08-30T14:55:23.317Z,1005.97
2018-08-30T14:56:23.317Z,1005.97
2018-08-30T14:57:23.316Z,1005.98
2018-08-30T14:58:23.318Z,1005.95
2018-08-30T14:59:23.436Z,1005.97
2018-08-30T15:00:23.379Z,1006.00
2018-08-30T15:01:23.318Z,1005.99
2018-08-30T15:02:23.319Z,1006.00
2018-08-30T15:03:23.320Z,1005.96
2018-08-30T15:04:23.319Z,1006.01
2018-08-30T15:05:23.395Z,1005.96
2018-08-30T15:06:23.320Z,1005.95
2018-08-30T15:07:23.320Z,1005.96
2018-08-30T15:08:23.366Z,1006.00
2018-08-30T15:09:23.321Z,1005.95
2018-08-30T15:10:23.324Z,1005.99
2018-08-30T15:11:23.420Z,1006.00
2018-08-30T15:12:23.457Z,1005.96
2018-08-30T15:13:23.324Z,1005.98
2018-08-30T15:14:23.324Z,1005.99
2018-08-30T15:15:23.376Z,1006.00
2018-08-30T15:16:23.324Z,1005.97
2018-08-30T15:17:23.438Z,1005.94
2018-08-30T15:18:23.358Z,1005.98
2018-08-30T15:19:23.323Z,1006.00
2018-08-30T15:20:23.403Z,1006.02
2018-08-30T15:21:23.497Z,1006.02
2018-08-30T15:22:23.322Z,1006.00
2018-08-30T15:23:23.564Z,1006.02
2018-08-30T15:24:23.362Z,1006.01
2018-08-30T15:25:23.325Z,1006.03
2018-08-30T15:26:23.321Z,1006.08
2018-08-30T15:27:23.494Z,1006.06
2018-08-30T15:28:23.320Z,1006.08
2018-08-30T15:29:23.454Z,1006.10
2018-08-30T15:30:23.321Z,1006.05
2018-08-30T15:31:23.419Z,1006.05
2018-08-30T15:32:23.421Z,1006.02
2018-08-30T15:33:23.318Z,1006.05
2018-08-30T15:34:23.318Z,1006.03
2018-08-30T15:35:23.466Z,1006.04
2018-08-30T15:36:23.313Z,1006.01
2018-08-30T15:37:23.312Z,1006.05
2018-08-30T15:38:23.311Z,1006.10
2018-08-30T15:39:23.309Z,1006.08
2018-08-30T15:40:23.331Z,1006.08
2018-08-30T15:41:23.327Z,1006.15
2018-08-30T15:42:23.394Z,1006.12
2018-08-30T15:43:23.302Z,1006.10
2018-08-30T15:44:23.300Z,1006.09
2018-08-30T15:45:23.298Z,1006.10
2018-08-30T15:46:23.296Z,1006.08
2018-08-30T15:47:23.485Z,1006.06
2018-08-30T15:48:23.523Z,1006.05
2018-08-30T15:49:23.291Z,1006.06
2018-08-30T15:50:23.289Z,1006.03
2018-08-30T15:51:23.287Z,1006.07
2018-08-30T15:52:23.285Z,1006.03
2018-08-30T15:53:23.309Z,1006.04
2018-08-30T15:54:23.281Z,1006.03
2018-08-30T15:55:23.277Z,1006.00
2018-08-30T15:56:23.276Z,1005.99
2018-08-30T15:57:23.396Z,1005.99
2018-08-30T15:58:23.274Z,1005.98
2018-08-30T15:59:23.362Z,1006.01
2018-08-30T16:00:23.266Z,1006.02
2018-08-30T16:01:23.264Z,1006.02
2018-08-30T16:02:23.261Z,1005.97
2018-08-30T16:03:23.259Z,1005.99
2018-08-30T16:04:23.258Z,1005.97
2018-08-30T16:05:23.378Z,1005.93
2018-08-30T16:06:23.255Z,1005.92
2018-08-30T16:07:23.250Z,1005.91
2018-08-30T16:08:23.244Z,1005.92
2018-08-30T16:09:23.243Z,1005.93
2018-08-30T16:10:23.279Z,1005.89
2018-08-30T16:11:23.392Z,1005.90
2018-08-30T16:12:23.234Z,1005.92
2018-08-30T16:13:23.230Z,1005.92
2018-08-30T16:14:23.229Z,1005.94
2018-08-30T16:15:23.225Z,1005.94
2018-08-30T16:16:23.250Z,1005.91
2018-08-30T16:17:23.398Z,1005.93
2018-08-30T16:18:23.215Z,1005.89
2018-08-30T16:19:23.213Z,1005.92
2018-08-30T16:20:23.209Z,1005.89
2018-08-30T16:21:23.206Z,1005.89
2018-08-30T16:22:23.202Z,1005.87
2018-08-30T16:23:23.385Z,1005.90
2018-08-30T16:24:23.203Z,1005.89
2018-08-30T16:25:23.194Z,1005.88
2018-08-30T16:26:23.191Z,1005.92
2018-08-30T16:27:23.185Z,1005.89
2018-08-30T16:28:23.189Z,1005.88
2018-08-30T16:29:23.305Z,1005.88
2018-08-30T16:30:23.202Z,1005.91
2018-08-30T16:31:23.190Z,1005.84
2018-08-30T16:32:23.170Z,1005.87
2018-08-30T16:33:23.167Z,1005.92
2018-08-30T16:34:23.417Z,1005.85
2018-08-30T16:35:23.261Z,1005.90
2018-08-30T16:36:23.230Z,1005.91
2018-08-30T16:37:23.154Z,1005.91
2018-08-30T16:38:23.152Z,1005.88
2018-08-30T16:39:23.146Z,1005.88
2018-08-30T16:40:23.160Z,1005.89
2018-08-30T16:41:23.349Z,1005.89
2018-08-30T16:42:23.138Z,1005.89
2018-08-30T16:43:23.135Z,1005.91
2018-08-30T16:44:23.131Z,1005.91
2018-08-30T16:45:23.128Z,1005.92
2018-08-30T16:46:23.123Z,1005.91
2018-08-30T16:47:23.274Z,1005.90
2018-08-30T16:48:23.117Z,1005.90
2018-08-30T16:49:23.117Z,1005.90
2018-08-30T16:50:23.110Z,1005.89
2018-08-30T16:51:23.106Z,1005.89
2018-08-30T16:52:23.103Z,1005.87
2018-08-30T16:53:23.236Z,1005.86
2018-08-30T16:54:23.100Z,1005.87
2018-08-30T16:55:23.098Z,1005.87
2018-08-30T16:56:23.195Z,1005.82
2018-08-30T16:57:23.086Z,1005.85
2018-08-30T16:58:23.124Z,1005.86
2018-08-30T16:59:23.115Z,1005.85
2018-08-30T17:00:23.076Z,1005.82
2018-08-30T17:01:23.073Z,1005.80
2018-08-30T17:02:23.208Z,1005.80
2018-08-30T17:03:23.124Z,1005.81
2018-08-30T17:04:23.062Z,1005.82
2018-08-30T17:05:23.059Z,1005.82
2018-08-30T17:06:23.195Z,1005.78
2018-08-30T17:07:23.053Z,1005.80
2018-08-30T17:08:23.048Z,1005.82
2018-08-30T17:09:23.045Z,1005.79
2018-08-30T17:10:23.042Z,1005.79
2018-08-30T17:11:23.036Z,1005.74
2018-08-30T17:12:23.034Z,1005.73
2018-08-30T17:13:23.031Z,1005.75
2018-08-30T17:14:23.026Z,1005.78
2018-08-30T17:15:23.026Z,1005.76
2018-08-30T17:16:23.037Z,1005.76
2018-08-30T17:17:23.032Z,1005.76
2018-08-30T17:18:23.052Z,1005.81
2018-08-30T17:19:23.003Z,1005.75
2018-08-30T17:20:22.999Z,1005.79
2018-08-30T17:21:22.995Z,1005.78
2018-08-30T17:22:22.992Z,1005.78
2018-08-30T17:23:22.986Z,1005.76
2018-08-30T17:24:22.982Z,1005.76
2018-08-30T17:25:23.083Z,1005.72
2018-08-30T17:26:22.975Z,1005.72
2018-08-30T17:27:23.071Z,1005.71
2018-08-30T17:28:22.968Z,1005.71
2018-08-30T17:29:22.963Z,1005.68
2018-08-30T17:30:22.958Z,1005.70
2018-08-30T17:31:23.096Z,1005.67
2018-08-30T17:32:22.948Z,1005.74
2018-08-30T17:33:22.944Z,1005.71
2018-08-30T17:34:22.939Z,1005.66
2018-08-30T17:35:22.933Z,1005.69
2018-08-30T17:36:22.930Z,1005.67
2018-08-30T17:37:22.925Z,1005.67
2018-08-30T17:38:22.922Z,1005.69
2018-08-30T17:39:22.918Z,1005.65
2018-08-30T17:40:22.911Z,1005.65
2018-08-30T17:41:22.905Z,1005.72
2018-08-30T17:42:22.901Z,1005.68
2018-08-30T17:43:22.897Z,1005.70
2018-08-30T17:44:22.909Z,1005.69
2018-08-30T17:45:22.913Z,1005.71
2018-08-30T17:46:22.898Z,1005.72
2018-08-30T17:47:22.878Z,1005.70
2018-08-30T17:48:22.890Z,1005.71
2018-08-30T17:49:22.869Z,1005.71
2018-08-30T17:50:22.870Z,1005.74
2018-08-30T17:51:22.859Z,1005.72
2018-08-30T17:52:22.854Z,1005.72
2018-08-30T17:53:22.854Z,1005.70
2018-08-30T17:54:22.884Z,1005.74
2018-08-30T17:55:22.840Z,1005.69
2018-08-30T17:56:22.835Z,1005.72
2018-08-30T17:57:22.832Z,1005.73
2018-08-30T17:58:22.827Z,1005.71
2018-08-30T17:59:22.823Z,1005.68
2018-08-30T18:00:22.817Z,1005.73
2018-08-30T18:01:22.955Z,1005.74
2018-08-30T18:02:22.807Z,1005.74
2018-08-30T18:03:22.802Z,1005.78
2018-08-30T18:04:22.798Z,1005.82
2018-08-30T18:05:22.793Z,1005.84
2018-08-30T18:06:22.788Z,1005.86
2018-08-30T18:07:22.783Z,1005.86
2018-08-30T18:08:22.778Z,1005.86
2018-08-30T18:09:22.774Z,1005.91
2018-08-30T18:10:22.768Z,1005.93
2018-08-30T18:11:22.763Z,1005.95
2018-08-30T18:12:22.760Z,1005.93
2018-08-30T18:13:22.753Z,1005.93
2018-08-30T18:14:22.748Z,1005.92
2018-08-30T18:15:22.742Z,1005.91
2018-08-30T18:16:22.738Z,1005.92
2018-08-30T18:17:22.732Z,1005.95
2018-08-30T18:18:22.738Z,1005.92
2018-08-30T18:19:22.723Z,1005.94
2018-08-30T18:20:22.717Z,1005.95
2018-08-30T18:21:22.713Z,1005.98
2018-08-30T18:22:22.707Z,1005.98
2018-08-30T18:23:22.705Z,1005.99
2018-08-30T18:24:22.706Z,1006.02
2018-08-30T18:25:22.693Z,1006.08
2018-08-30T18:26:22.687Z,1006.10
2018-08-30T18:27:22.681Z,1006.12
2018-08-30T18:28:22.681Z,1006.16
2018-08-30T18:29:22.672Z,1006.16
2018-08-30T18:30:22.666Z,1006.17
2018-08-30T18:31:22.671Z,1006.18
2018-08-30T18:32:22.655Z,1006.20
2018-08-30T18:33:22.651Z,1006.19
2018-08-30T18:34:22.645Z,1006.20
2018-08-30T18:35:22.642Z,1006.22
2018-08-30T18:36:22.636Z,1006.22
2018-08-30T18:37:22.629Z,1006.23
2018-08-30T18:38:22.630Z,1006.24
2018-08-30T18:39:22.617Z,1006.24
2018-08-30T18:40:22.612Z,1006.23
2018-08-30T18:41:22.608Z,1006.28
2018-08-30T18:42:22.629Z,1006.27
2018-08-30T18:43:22.597Z,1006.28
2018-08-30T18:44:22.591Z,1006.26
2018-08-30T18:45:22.585Z,1006.25
2018-08-30T18:46:22.580Z,1006.25
2018-08-30T18:47:22.573Z,1006.27
2018-08-30T18:48:22.572Z,1006.26
2018-08-30T18:49:22.563Z,1006.25
2018-08-30T18:50:22.562Z,1006.27
2018-08-30T18:51:22.554Z,1006.27
2018-08-30T18:52:22.547Z,1006.25
2018-08-30T18:53:22.541Z,1006.31
2018-08-30T18:54:22.537Z,1006.34
2018-08-30T18:55:22.529Z,1006.36
2018-08-30T18:56:22.526Z,1006.33
2018-08-30T18:57:22.519Z,1006.33
2018-08-30T18:58:22.514Z,1006.37
2018-08-30T18:59:22.507Z,1006.35
2018-08-30T19:00:22.501Z,1006.36
2018-08-30T19:01:22.496Z,1006.39
2018-08-30T19:02:22.491Z,1006.39
2018-08-30T19:03:22.484Z,1006.38
2018-08-30T19:04:22.480Z,1006.39
2018-08-30T19:05:22.473Z,1006.42
2018-08-30T19:06:22.469Z,1006.41
2018-08-30T19:07:22.461Z,1006.45
2018-08-30T19:08:22.455Z,1006.41
2018-08-30T19:09:22.449Z,1006.44
2018-08-30T19:10:22.443Z,1006.49
2018-08-30T19:11:22.437Z,1006.44
2018-08-30T19:12:22.431Z,1006.46
2018-08-30T19:13:22.510Z,1006.43
2018-08-30T19:14:22.420Z,1006.43
2018-08-30T19:15:22.414Z,1006.43
2018-08-30T19:16:22.411Z,1006.46
2018-08-30T19:17:22.403Z,1006.42
2018-08-30T19:18:22.404Z,1006.43
2018-08-30T19:19:22.389Z,1006.45
2018-08-30T19:20:22.430Z,1006.46
2018-08-30T19:21:22.378Z,1006.44
2018-08-30T19:22:22.373Z,1006.43
2018-08-30T19:23:22.366Z,1006.46
2018-08-30T19:24:22.359Z,1006.45
2018-08-30T19:25:22.353Z,1006.47
2018-08-30T19:26:22.348Z,1006.47
2018-08-30T19:27:22.340Z,1006.47
2018-08-30T19:28:22.334Z,1006.53
2018-08-30T19:29:22.330Z,1006.50
2018-08-30T19:30:22.323Z,1006.53
2018-08-30T19:31:22.317Z,1006.54
2018-08-30T19:32:22.311Z,1006.52
2018-08-30T19:33:22.305Z,1006.55
2018-08-30T19:34:22.300Z,1006.51
2018-08-30T19:35:22.292Z,1006.52
2018-08-30T19:36:22.285Z,1006.51
2018-08-30T19:37:22.280Z,1006.49
2018-08-30T19:38:22.274Z,1006.49
2018-08-30T19:39:22.266Z,1006.54
2018-08-30T19:40:22.261Z,1006.54
2018-08-30T19:41:22.254Z,1006.57
2018-08-30T19:42:22.248Z,1006.57
2018-08-30T19:43:22.240Z,1006.57
2018-08-30T19:44:22.234Z,1006.60
2018-08-30T19:45:22.229Z,1006.53
2018-08-30T19:46:22.222Z,1006.54
2018-08-30T19:47:22.215Z,1006.54
2018-08-30T19:48:22.209Z,1006.52
2018-08-30T19:49:22.204Z,1006.52
2018-08-30T19:50:22.197Z,1006.49
2018-08-30T19:51:22.199Z,1006.50
2018-08-30T19:52:22.285Z,1006.47
2018-08-30T19:53:22.181Z,1006.50
2018-08-30T19:54:22.171Z,1006.48
2018-08-30T19:55:22.164Z,1006.52
2018-08-30T19:56:22.159Z,1006.51
2018-08-30T19:57:22.152Z,1006.51
2018-08-30T19:58:22.167Z,1006.49
2018-08-30T19:59:22.139Z,1006.51
2018-08-30T20:00:22.131Z,1006.52
2018-08-30T20:01:22.125Z,1006.54
2018-08-30T20:02:22.154Z,1006.55
2018-08-30T20:03:22.113Z,1006.54
2018-08-30T20:04:22.109Z,1006.52
2018-08-30T20:05:22.101Z,1006.58
2018-08-30T20:06:22.093Z,1006.56
2018-08-30T20:07:22.094Z,1006.57
2018-08-30T20:08:22.081Z,1006.56
2018-08-30T20:09:22.182Z,1006.53
2018-08-30T20:10:22.069Z,1006.53
2018-08-30T20:11:22.062Z,1006.54
2018-08-30T20:12:22.054Z,1006.57
2018-08-30T20:13:22.052Z,1006.55
2018-08-30T20:14:22.043Z,1006.57
2018-08-30T20:15:22.036Z,1006.57
2018-08-30T20:16:22.031Z,1006.59
2018-08-30T20:17:22.022Z,1006.55
2018-08-30T20:18:22.017Z,1006.59
2018-08-30T20:19:22.015Z,1006.58
2018-08-30T20:20:22.003Z,1006.61
2018-08-30T20:21:21.998Z,1006.55
2018-08-30T20:22:21.991Z,1006.55
2018-08-30T20:23:21.984Z,1006.56
2018-08-30T20:24:21.977Z,1006.55
2018-08-30T20:25:21.970Z,1006.58
2018-08-30T20:26:21.964Z,1006.60
2018-08-30T20:27:21.957Z,1006.59
2018-08-30T20:28:21.951Z,1006.53
2018-08-30T20:29:21.945Z,1006.56
2018-08-30T20:30:21.938Z,1006.57
2018-08-30T20:31:21.930Z,1006.58
2018-08-30T20:32:21.923Z,1006.59
2018-08-30T20:33:21.918Z,1006.59
2018-08-30T20:34:21.914Z,1006.62
2018-08-30T20:35:21.904Z,1006.62
2018-08-30T20:36:21.897Z,1006.64
2018-08-30T20:37:22.145Z,1006.64
2018-08-30T20:38:21.886Z,1006.64
2018-08-30T20:39:21.877Z,1006.67
2018-08-30T20:40:21.871Z,1006.67
2018-08-30T20:41:21.864Z,1006.69
2018-08-30T20:42:21.859Z,1006.71
2018-08-30T20:43:21.851Z,1006.71
2018-08-30T20:44:21.844Z,1006.71
2018-08-30T20:45:21.839Z,1006.71
2018-08-30T20:46:21.831Z,1006.73
2018-08-30T20:47:21.825Z,1006.75
2018-08-30T20:48:21.818Z,1006.73
2018-08-30T20:49:21.811Z,1006.79
2018-08-30T20:50:21.806Z,1006.75
2018-08-30T20:51:21.799Z,1006.79
2018-08-30T20:52:21.792Z,1006.75
2018-08-30T20:53:21.802Z,1006.78
2018-08-30T20:54:21.783Z,1006.73
2018-08-30T20:55:21.773Z,1006.73
2018-08-30T20:56:21.767Z,1006.71
2018-08-30T20:57:21.758Z,1006.67
2018-08-30T20:58:21.750Z,1006.66
2018-08-30T20:59:21.744Z,1006.69
2018-08-30T21:00:21.760Z,1006.70
2018-08-30T21:01:21.730Z,1006.74
2018-08-30T21:02:21.726Z,1006.73
2018-08-30T21:03:21.720Z,1006.70
2018-08-30T21:04:21.710Z,1006.70
2018-08-30T21:05:21.706Z,1006.74
2018-08-30T21:06:21.698Z,1006.73
2018-08-30T21:07:21.689Z,1006.71
2018-08-30T21:08:21.683Z,1006.74
2018-08-30T21:09:21.677Z,1006.74
2018-08-30T21:10:21.670Z,1006.73
2018-08-30T21:11:21.662Z,1006.75
2018-08-30T21:12:21.656Z,1006.75
2018-08-30T21:13:21.650Z,1006.73
2018-08-30T21:14:21.643Z,1006.73
2018-08-30T21:15:21.635Z,1006.72
2018-08-30T21:16:21.630Z,1006.77
2018-08-30T21:17:21.625Z,1006.73
2018-08-30T21:18:21.615Z,1006.77
2018-08-30T21:19:21.608Z,1006.74
2018-08-30T21:20:21.601Z,1006.73
2018-08-30T21:21:21.596Z,1006.73
2018-08-30T21:22:21.591Z,1006.76
2018-08-30T21:23:21.581Z,1006.70
2018-08-30T21:24:21.575Z,1006.70
2018-08-30T21:25:21.568Z,1006.70
2018-08-30T21:26:21.560Z,1006.68
2018-08-30T21:27:21.554Z,1006.70
2018-08-30T21:28:21.548Z,1006.71
2018-08-30T21:29:21.539Z,1006.67
2018-08-30T21:30:21.533Z,1006.69
2018-08-30T21:31:21.525Z,1006.66
2018-08-30T21:32:21.518Z,1006.70
2018-08-30T21:33:21.513Z,1006.71
2018-08-30T21:34:21.509Z,1006.66
2018-08-30T21:35:21.497Z,1006.64
2018-08-30T21:36:21.507Z,1006.63
2018-08-30T21:37:21.483Z,1006.71
2018-08-30T21:38:21.477Z,1006.63
2018-08-30T21:39:21.469Z,1006.70
2018-08-30T21:40:21.462Z,1006.63
2018-08-30T21:41:21.455Z,1006.63
2018-08-30T21:42:21.449Z,1006.63
2018-08-30T21:43:21.472Z,1006.62
2018-08-30T21:44:21.437Z,1006.61
2018-08-30T21:45:21.427Z,1006.62
2018-08-30T21:46:21.421Z,1006.63
2018-08-30T21:47:21.413Z,1006.61
2018-08-30T21:48:21.406Z,1006.61
2018-08-30T21:49:21.399Z,1006.63
2018-08-30T21:50:21.392Z,1006.62
2018-08-30T21:51:21.385Z,1006.63
2018-08-30T21:52:21.378Z,1006.63
2018-08-30T21:53:21.372Z,1006.60
2018-08-30T21:54:21.364Z,1006.61
2018-08-30T21:55:21.356Z,1006.63
2018-08-30T21:56:21.350Z,1006.61
2018-08-30T21:57:21.342Z,1006.65
2018-08-30T21:58:21.335Z,1006.64
2018-08-30T21:59:21.331Z,1006.67
2018-08-30T22:00:21.320Z,1006.67